^^
Saratoga-Weather Station Historical Data
Daily Summary for March 21, 2020 Units:  Metric    English   Both
Daily Weekly Monthly Yearly Custom
  High: Low: Average:
Temperature: 22.1 °C 10.2 °C 15.1 °C
Dew Point: 13.7 °C 9.5 °C 11.4 °C
Humidity: 97% 55% 80%
Wind Speed: 14.3km/h 0km/h 1.9km/h
Wind Gust: 25.7km/h - -
Wind- - SSW
Pressure: 1010.2 hPa 1004.7 hPa -
Precipitation: 2.3 mm    
Historical Graphs
 
 
Tabular Data for March 21, 2020
Time Temperature Dew Point Pressure Wind Wind Speed Wind Gust Humidity Rainfall Rate (Hourly) solar
00:00 11.6 °C 10.7 °C 1008.8 hPa Calm     94% 0.0 mm 0 W/m2
00:05 11.6 °C 10.7 °C 1008.8 hPa Calm     94% 0.0 mm 0 W/m2
00:10 11.6 °C 10.7 °C 1009.1 hPa Calm     94% 0.0 mm 0 W/m2
00:15 11.5 °C 10.6 °C 1009.1 hPa Calm     94% 0.0 mm 0 W/m2
00:20 11.5 °C 10.6 °C 1009.1 hPa Calm     94% 0.0 mm 0 W/m2
00:25 11.4 °C 10.5 °C 1008.8 hPa Calm     94% 0.0 mm 0 W/m2
00:30 11.4 °C 10.5 °C 1008.8 hPa Calm     94% 0.0 mm 0 W/m2
00:35 11.4 °C 10.5 °C 1008.8 hPa Calm     94% 0.0 mm 0 W/m2
00:40 11.3 °C 10.4 °C 1008.8 hPa Calm     94% 0.0 mm 0 W/m2
00:45 11.3 °C 10.4 °C 1008.8 hPa Calm     94% 0.0 mm 0 W/m2
00:50 11.3 °C 10.4 °C 1008.5 hPa Calm     94% 0.0 mm 0 W/m2
00:55 11.3 °C 10.4 °C 1008.5 hPa Calm     94% 0.0 mm 0 W/m2
01:00 11.3 °C 10.4 °C 1008.5 hPa Calm     94% 0.0 mm 0 W/m2
01:05 11.2 °C 10.3 °C 1008.5 hPa Calm     94% 0.0 mm 0 W/m2
01:10 11.2 °C 10.3 °C 1008.5 hPa Calm     94% 0.0 mm 0 W/m2
01:15 11.2 °C 10.3 °C 1008.5 hPa Calm     94% 0.0 mm 0 W/m2
01:20 11.2 °C 10.3 °C 1008.5 hPa Calm     94% 0.0 mm 0 W/m2
01:25 11.2 °C 10.3 °C 1008.5 hPa Calm     94% 0.0 mm 0 W/m2
01:30 11.2 °C 10.3 °C 1008.5 hPa Calm     94% 0.0 mm 0 W/m2
01:36 11.1 °C 10.2 °C 1008.5 hPa Calm     94% 0.0 mm 0 W/m2
01:41 11.1 °C 10.2 °C 1008.5 hPa Calm     94% 0.0 mm 0 W/m2
01:46 11.1 °C 10.2 °C 1008.5 hPa Calm     94% 0.0 mm 0 W/m2
01:51 11.1 °C 10.2 °C 1008.5 hPa Calm     94% 0.0 mm 0 W/m2
01:56 11 °C 10.1 °C 1008.1 hPa Calm     94% 0.0 mm 0 W/m2
02:01 10.9 °C 10 °C 1008.1 hPa Calm     94% 0.0 mm 0 W/m2
02:06 10.8 °C 9.9 °C 1008.1 hPa Calm     94% 0.0 mm 0 W/m2
02:11 10.8 °C 9.9 °C 1007.8 hPa Calm     94% 0.0 mm 0 W/m2
02:16 10.8 °C 9.9 °C 1007.8 hPa Calm     94% 0.0 mm 0 W/m2
02:21 10.7 °C 9.8 °C 1008.1 hPa Calm     94% 0.0 mm 0 W/m2
02:26 10.7 °C 9.8 °C 1008.1 hPa Calm     94% 0.0 mm 0 W/m2
02:31 10.6 °C 9.8 °C 1008.1 hPa Calm     95% 0.0 mm 0 W/m2
02:36 10.6 °C 9.7 °C 1008.1 hPa Calm     94% 0.0 mm 0 W/m2
02:41 10.6 °C 9.8 °C 1008.1 hPa Calm     95% 0.0 mm 0 W/m2
02:46 10.6 °C 9.8 °C 1008.1 hPa Calm     95% 0.0 mm 0 W/m2
02:51 10.6 °C 9.8 °C 1007.8 hPa Calm     95% 0.0 mm 0 W/m2
02:56 10.5 °C 9.7 °C 1007.8 hPa Calm     95% 0.0 mm 0 W/m2
03:01 10.5 °C 9.7 °C 1007.8 hPa Calm     95% 0.0 mm 0 W/m2
03:06 10.5 °C 9.7 °C 1007.8 hPa Calm     95% 0.0 mm 0 W/m2
03:11 10.4 °C 9.6 °C 1007.8 hPa Calm     95% 0.0 mm 0 W/m2
03:16 10.4 °C 9.6 °C 1007.5 hPa Calm     95% 0.0 mm 0 W/m2
03:21 10.4 °C 9.6 °C 1007.5 hPa Calm     95% 0.0 mm 0 W/m2
03:26 10.3 °C 9.5 °C 1007.5 hPa Calm     95% 0.0 mm 0 W/m2
03:31 10.4 °C 9.6 °C 1007.5 hPa Calm     95% 0.0 mm 0 W/m2
03:37 10.4 °C 9.6 °C 1007.5 hPa Calm     95% 0.0 mm 0 W/m2
03:42 10.4 °C 9.6 °C 1007.5 hPa Calm     95% 0.0 mm 0 W/m2
03:47 10.4 °C 9.6 °C 1007.5 hPa Calm     95% 0.0 mm 0 W/m2
03:52 10.4 °C 9.6 °C 1007.5 hPa Calm     95% 0.0 mm 0 W/m2
03:57 10.5 °C 9.7 °C 1007.5 hPa Calm     95% 0.0 mm 0 W/m2
04:02 10.5 °C 9.7 °C 1007.5 hPa Calm   1.6 km/h 95% 0.2 mm 0 W/m2
04:07 10.6 °C 9.8 °C 1007.5 hPa Calm   3.2 km/h 95% 0.2 mm 0 W/m2
04:12 10.6 °C 9.8 °C 1007.1 hPa SE 1.4 km/h 1.6 km/h 95% 0.2 mm 0 W/m2
04:17 10.7 °C 9.9 °C 1007.1 hPa Calm   3.2 km/h 95% 0.2 mm 0 W/m2
04:22 10.7 °C 9.9 °C 1007.1 hPa Calm     95% 0.2 mm 0 W/m2
04:27 10.7 °C 9.9 °C 1007.1 hPa Calm   3.2 km/h 95% 0.2 mm 0 W/m2
04:32 10.7 °C 9.9 °C 1007.1 hPa ENE 3.2 km/h 4.8 km/h 95% 0.2 mm 0 W/m2
04:37 11 °C 10.2 °C 1007.1 hPa NE 3.2 km/h 6.4 km/h 95% 0.5 mm 0 W/m2
04:42 11.5 °C 10.4 °C 1007.1 hPa North 3.2 km/h 8 km/h 93% 0.5 mm 0 W/m2
04:47 11.9 °C 10.3 °C 1007.1 hPa ESE 3.2 km/h 6.4 km/h 90% 0.5 mm 0 W/m2
04:52 12.2 °C 10.3 °C 1007.1 hPa NNE 1.4 km/h 4.8 km/h 88% 0.5 mm 0 W/m2
04:57 12.3 °C 10.2 °C 1007.1 hPa ENE 3.2 km/h 4.8 km/h 87% 0.5 mm 0 W/m2
05:02 12.3 °C 10.2 °C 1006.8 hPa NNE 6.4 km/h 6.4 km/h 87% 0.5 mm 0 W/m2
05:07 12.2 °C 10.1 °C 1006.4 hPa ENE 1.4 km/h 3.2 km/h 87% 1.0 mm 0 W/m2
05:12 12.1 °C 10.2 °C 1006.4 hPa Calm   3.2 km/h 88% 1.3 mm 0 W/m2
05:17 11.9 °C 10.3 °C 1006.4 hPa Calm   3.2 km/h 90% 1.3 mm 0 W/m2
05:22 11.8 °C 10.2 °C 1006.4 hPa ENE 1.4 km/h 4.8 km/h 90% 1.3 mm 0 W/m2
05:32 11.4 °C 10.1 °C 1006.4 hPa Calm   4.8 km/h 92% 1.3 mm 0 W/m2
05:37 11.3 °C 10 °C 1006.4 hPa Calm     92% 1.0 mm 0 W/m2
05:42 11.2 °C 9.9 °C 1006.4 hPa Calm     92% 1.3 mm 0 W/m2
05:47 11.2 °C 10.1 °C 1006.4 hPa Calm     93% 1.3 mm 0 W/m2
05:52 11.1 °C 10 °C 1006.4 hPa Calm     93% 1.0 mm 0 W/m2
05:57 11 °C 9.9 °C 1006.4 hPa Calm     93% 1.0 mm 0 W/m2
06:02 10.9 °C 10 °C 1006.4 hPa Calm     94% 0.8 mm 0 W/m2
06:07 10.8 °C 9.9 °C 1006.4 hPa Calm     94% 0.5 mm 0 W/m2
06:12 10.8 °C 9.9 °C 1006.4 hPa Calm     94% 0.5 mm 0 W/m2
06:17 10.8 °C 9.9 °C 1006.1 hPa Calm     94% 0.5 mm 0 W/m2
06:22 10.7 °C 9.8 °C 1006.1 hPa Calm     94% 0.5 mm 0 W/m2
06:27 10.7 °C 9.9 °C 1006.1 hPa Calm     95% 0.5 mm 0 W/m2
06:32 10.7 °C 9.9 °C 1006.1 hPa Calm     95% 0.5 mm 0 W/m2
06:37 10.7 °C 9.9 °C 1006.1 hPa Calm     95% 0.5 mm 0 W/m2
06:42 10.7 °C 9.9 °C 1006.1 hPa Calm     95% 0.5 mm 0 W/m2
06:47 10.7 °C 9.9 °C 1006.1 hPa Calm     95% 0.5 mm 0 W/m2
06:52 10.7 °C 9.9 °C 1005.8 hPa ENE 1.4 km/h 3.2 km/h 95% 0.5 mm 0 W/m2
06:57 10.7 °C 9.9 °C 1005.8 hPa Calm     95% 0.5 mm 0 W/m2
07:02 10.6 °C 9.8 °C 1005.8 hPa Calm   3.2 km/h 95% 0.5 mm 0 W/m2
07:07 10.6 °C 9.8 °C 1005.8 hPa Calm     95% 0.5 mm 0 W/m2
07:12 10.6 °C 9.8 °C 1005.8 hPa Calm     95% 0.2 mm 0 W/m2
07:17 10.5 °C 9.7 °C 1005.8 hPa Calm     95% 0.2 mm 0 W/m2
07:22 10.5 °C 9.7 °C 1005.8 hPa Calm     95% 0.2 mm 0 W/m2
07:27 10.4 °C 9.8 °C 1005.8 hPa Calm     96% 0.2 mm 0 W/m2
07:32 10.4 °C 9.6 °C 1005.8 hPa Calm     95% 0.0 mm 0 W/m2
07:37 10.3 °C 9.5 °C 1005.8 hPa Calm     95% 0.0 mm 0 W/m2
07:42 10.3 °C 9.5 °C 1005.8 hPa Calm   1.6 km/h 95% 0.0 mm 0 W/m2
07:47 10.2 °C 9.6 °C 1005.8 hPa Calm     96% 0.0 mm 0 W/m2
07:52 10.2 °C 9.6 °C 1005.8 hPa Calm   1.6 km/h 96% 0.0 mm 0 W/m2
07:57 10.2 °C 9.6 °C 1005.8 hPa Calm     96% 0.0 mm 0 W/m2
08:02 10.2 °C 9.6 °C 1005.8 hPa Calm     96% 0.0 mm 0 W/m2
08:07 10.2 °C 9.6 °C 1005.8 hPa Calm     96% 0.0 mm 0 W/m2
08:12 10.2 °C 9.6 °C 1006.1 hPa Calm     96% 0.0 mm 0 W/m2
08:17 10.2 °C 9.6 °C 1006.1 hPa Calm     96% 0.2 mm 0 W/m2
08:22 10.2 °C 9.6 °C 1006.1 hPa Calm     96% 0.2 mm 5 W/m2
08:27 10.2 °C 9.6 °C 1005.8 hPa Calm     96% 0.2 mm 9 W/m2
08:32 10.3 °C 9.7 °C 1005.8 hPa Calm     96% 0.2 mm 14 W/m2
08:37 10.3 °C 9.7 °C 1006.1 hPa Calm     96% 0.2 mm 19 W/m2
08:42 10.3 °C 9.7 °C 1005.8 hPa Calm     96% 0.2 mm 21 W/m2
08:47 10.3 °C 9.7 °C 1006.1 hPa Calm     96% 0.2 mm 25 W/m2
08:52 10.3 °C 9.7 °C 1006.1 hPa Calm     96% 0.2 mm 25 W/m2
08:57 10.3 °C 9.7 °C 1006.1 hPa Calm     96% 0.2 mm 19 W/m2
09:02 10.3 °C 9.7 °C 1006.1 hPa Calm     96% 0.2 mm 33 W/m2
09:07 10.3 °C 9.7 °C 1006.1 hPa Calm     96% 0.2 mm 26 W/m2
09:12 10.3 °C 9.7 °C 1006.1 hPa Calm     96% 0.2 mm 25 W/m2
09:17 10.4 °C 9.8 °C 1006.4 hPa Calm     96% 0.0 mm 26 W/m2
09:22 10.4 °C 9.8 °C 1006.1 hPa Calm     96% 0.0 mm 19 W/m2
09:27 10.5 °C 9.9 °C 1006.1 hPa NW 3.2 km/h 3.2 km/h 96% 0.0 mm 32 W/m2
09:32 10.5 °C 9.9 °C 1006.4 hPa West 1.4 km/h 1.6 km/h 96% 0.0 mm 44 W/m2
09:37 10.5 °C 9.9 °C 1006.4 hPa Calm   1.6 km/h 96% 0.0 mm 32 W/m2
09:42 10.6 °C 10 °C 1006.4 hPa Calm   1.6 km/h 96% 0.0 mm 30 W/m2
09:47 10.6 °C 10 °C 1006.4 hPa Calm     96% 0.0 mm 28 W/m2
09:52 10.6 °C 10 °C 1006.4 hPa Calm   3.2 km/h 96% 0.0 mm 26 W/m2
09:57 10.6 °C 10 °C 1006.4 hPa Calm     96% 0.0 mm 39 W/m2
10:02 10.6 °C 10 °C 1006.4 hPa Calm   3.2 km/h 96% 0.0 mm 58 W/m2
10:07 10.7 °C 10.1 °C 1006.4 hPa Calm     96% 0.0 mm 74 W/m2
10:12 10.7 °C 10.2 °C 1006.4 hPa Calm   1.6 km/h 97% 0.0 mm 76 W/m2
10:17 10.8 °C 10.3 °C 1006.4 hPa Calm     97% 0.0 mm 74 W/m2
10:22 10.8 °C 10.3 °C 1006.1 hPa Calm   1.6 km/h 97% 0.0 mm 84 W/m2
10:27 11 °C 10.5 °C 1006.1 hPa Calm     97% 0.0 mm 127 W/m2
10:32 11.1 °C 10.6 °C 1006.1 hPa Calm   1.6 km/h 97% 0.0 mm 114 W/m2
10:37 11.2 °C 10.7 °C 1006.1 hPa Calm     97% 0.0 mm 113 W/m2
10:42 11.3 °C 10.8 °C 1006.1 hPa Calm     97% 0.0 mm 120 W/m2
10:47 11.5 °C 11 °C 1006.1 hPa Calm     97% 0.0 mm 95 W/m2
10:52 11.7 °C 11.2 °C 1006.1 hPa Calm     97% 0.0 mm 84 W/m2
10:57 11.8 °C 11.3 °C 1005.8 hPa Calm     97% 0.0 mm 95 W/m2
11:02 11.9 °C 11.4 °C 1005.8 hPa Calm     97% 0.0 mm 81 W/m2
11:07 12 °C 11.5 °C 1005.8 hPa Calm     97% 0.0 mm 114 W/m2
11:12 12.1 °C 11.6 °C 1005.8 hPa West 1.4 km/h 3.2 km/h 97% 0.0 mm 151 W/m2
11:17 12.2 °C 11.6 °C 1005.8 hPa ENE 3.2 km/h 3.2 km/h 96% 0.0 mm 135 W/m2
11:22 12.3 °C 11.8 °C 1005.8 hPa NE 1.4 km/h 3.2 km/h 97% 0.0 mm 109 W/m2
11:28 12.6 °C 12 °C 1005.8 hPa NNW 1.4 km/h 3.2 km/h 96% 0.0 mm 97 W/m2
11:33 12.8 °C 12.2 °C 1005.8 hPa NW 1.4 km/h 14.5 km/h 96% 0.0 mm 79 W/m2
11:38 13.5 °C 12.7 °C 1005.8 hPa NE 4.7 km/h 8 km/h 95% 0.0 mm 72 W/m2
11:43 14.3 °C 12.9 °C 1005.4 hPa ESE 14.3 km/h 17.7 km/h 91% 0.0 mm 53 W/m2
11:48 15.3 °C 12.1 °C 1005.8 hPa Calm   8 km/h 81% 0.0 mm 70 W/m2
11:53 16.2 °C 11.8 °C 1005.8 hPa NW 6.4 km/h 6.4 km/h 75% 0.0 mm 132 W/m2
11:58 16.7 °C 12 °C 1005.8 hPa NNE 1.4 km/h 6.4 km/h 74% 0.0 mm 139 W/m2
12:03 17 °C 11.5 °C 1005.4 hPa NNW 6.4 km/h 11.3 km/h 70% 0.0 mm 141 W/m2
12:08 17.3 °C 11.3 °C 1005.8 hPa NNW 1.4 km/h 9.7 km/h 68% 0.0 mm 197 W/m2
12:13 17.7 °C 11.5 °C 1005.8 hPa NNE 4.7 km/h 6.4 km/h 67% 0.0 mm 197 W/m2
12:18 17.9 °C 11.2 °C 1005.8 hPa ENE 6.4 km/h 8 km/h 65% 0.0 mm 172 W/m2
12:23 18.2 °C 11.5 °C 1005.8 hPa NNE 3.2 km/h 12.9 km/h 65% 0.0 mm 192 W/m2
12:28 18.3 °C 10.9 °C 1005.8 hPa East 3.2 km/h 12.9 km/h 62% 0.0 mm 204 W/m2
12:33 18.5 °C 11.1 °C 1005.8 hPa NW 1.4 km/h 9.7 km/h 62% 0.0 mm 223 W/m2
12:38 18.7 °C 11.5 °C 1005.8 hPa NW 3.2 km/h 8 km/h 63% 0.0 mm 229 W/m2
12:43 18.8 °C 11.4 °C 1005.8 hPa NNW 7.9 km/h 14.5 km/h 62% 0.0 mm 290 W/m2
12:48 18.9 °C 11.5 °C 1005.8 hPa Calm   9.7 km/h 62% 0.0 mm 330 W/m2
12:53 19.2 °C 11.5 °C 1005.8 hPa NNW 6.4 km/h 8 km/h 61% 0.0 mm 244 W/m2
12:58 19.3 °C 11.6 °C 1005.8 hPa WNW 1.4 km/h 14.5 km/h 61% 0.0 mm 183 W/m2
13:03 19.3 °C 11.3 °C 1005.8 hPa SSW 4.7 km/h 24.1 km/h 60% 0.0 mm 151 W/m2
13:08 19.3 °C 11.3 °C 1005.8 hPa East 1.4 km/h 8 km/h 60% 0.0 mm 246 W/m2
13:13 19.4 °C 11.7 °C 1005.8 hPa WSW 3.2 km/h 12.9 km/h 61% 0.0 mm 267 W/m2
13:18 19.6 °C 11.4 °C 1005.4 hPa WNW 1.4 km/h 16.1 km/h 59% 0.0 mm 246 W/m2
13:23 19.7 °C 11.5 °C 1005.4 hPa NW 4.7 km/h 14.5 km/h 59% 0.0 mm 142 W/m2
13:28 19.7 °C 11.2 °C 1005.1 hPa SSW 4.7 km/h 19.3 km/h 58% 0.0 mm 148 W/m2
13:33 19.6 °C 11.4 °C 1005.4 hPa ENE 4.7 km/h 11.3 km/h 59% 0.0 mm 151 W/m2
13:38 19.7 °C 11.5 °C 1005.4 hPa Calm   19.3 km/h 59% 0.0 mm 120 W/m2
13:43 19.8 °C 11.6 °C 1005.4 hPa NW 6.4 km/h 16.1 km/h 59% 0.0 mm 102 W/m2
13:48 20.1 °C 11.8 °C 1005.4 hPa ENE 1.4 km/h 6.4 km/h 59% 0.0 mm 107 W/m2
13:53 20.3 °C 12 °C 1005.1 hPa North 4.7 km/h 16.1 km/h 59% 0.0 mm 102 W/m2
13:58 20.6 °C 12 °C 1005.1 hPa NNE 4.7 km/h 16.1 km/h 58% 0.0 mm 128 W/m2
14:03 20.8 °C 12 °C 1005.1 hPa NNE 7.9 km/h 12.9 km/h 57% 0.0 mm 130 W/m2
14:08 20.9 °C 12.1 °C 1005.1 hPa NE 4.7 km/h 14.5 km/h 57% 0.0 mm 142 W/m2
14:13 21.1 °C 12.2 °C 1005.1 hPa NW 6.4 km/h 11.3 km/h 57% 0.0 mm 118 W/m2
14:18 21.2 °C 12.3 °C 1005.1 hPa NW 4.7 km/h 12.9 km/h 57% 0.0 mm 134 W/m2
14:23 21.3 °C 12.2 °C 1005.1 hPa NNW 7.9 km/h 11.3 km/h 56% 0.0 mm 113 W/m2
14:28 21.3 °C 12.4 °C 1005.1 hPa North 7.9 km/h 9.7 km/h 57% 0.0 mm 91 W/m2
14:33 21.3 °C 12.2 °C 1005.1 hPa NW 6.4 km/h 14.5 km/h 56% 0.0 mm 83 W/m2
14:38 21.3 °C 12.2 °C 1005.1 hPa NNW 4.7 km/h 9.7 km/h 56% 0.0 mm 74 W/m2
14:44 21.3 °C 12.2 °C 1005.1 hPa NNW 7.9 km/h 9.7 km/h 56% 0.0 mm 79 W/m2
14:49 21.3 °C 12.2 °C 1005.1 hPa NNE 6.4 km/h 14.5 km/h 56% 0.0 mm 63 W/m2
14:54 21.3 °C 12.2 °C 1005.1 hPa NNE 6.4 km/h 14.5 km/h 56% 0.0 mm 58 W/m2
14:59 21.4 °C 12.3 °C 1005.1 hPa NW 13 km/h 16.1 km/h 56% 0.0 mm 56 W/m2
15:04 21.6 °C 12.4 °C 1005.1 hPa West 4.7 km/h 16.1 km/h 56% 0.0 mm 54 W/m2
15:09 21.6 °C 12.2 °C 1005.1 hPa NE 1.4 km/h 19.3 km/h 55% 0.0 mm 53 W/m2
15:14 21.6 °C 12.4 °C 1005.1 hPa North 4.7 km/h 25.7 km/h 56% 0.0 mm 53 W/m2
15:19 21.7 °C 12.5 °C 1005.1 hPa NW 4.7 km/h 14.5 km/h 56% 0.0 mm 51 W/m2
15:24 21.8 °C 12.4 °C 1005.1 hPa ENE 3.2 km/h 11.3 km/h 55% 0.0 mm 58 W/m2
15:29 21.8 °C 12.4 °C 1005.1 hPa East 3.2 km/h 17.7 km/h 55% 0.0 mm 53 W/m2
15:34 21.9 °C 12.5 °C 1004.7 hPa ENE 4.7 km/h 11.3 km/h 55% 0.0 mm 60 W/m2
15:39 21.9 °C 12.5 °C 1004.7 hPa North 3.2 km/h 6.4 km/h 55% 0.0 mm 63 W/m2
15:44 22.1 °C 12.6 °C 1004.7 hPa NW 7.9 km/h 8 km/h 55% 0.0 mm 91 W/m2
15:49 22.1 °C 12.6 °C 1004.7 hPa WNW 4.7 km/h 8 km/h 55% 0.0 mm 70 W/m2
15:54 22.1 °C 12.6 °C 1005.1 hPa NNW 1.4 km/h 8 km/h 55% 0.0 mm 62 W/m2
15:59 22.1 °C 12.6 °C 1005.1 hPa NE 4.7 km/h 16.1 km/h 55% 0.0 mm 76 W/m2
16:04 21.9 °C 12.5 °C 1005.1 hPa NE 1.4 km/h 12.9 km/h 55% 0.0 mm 84 W/m2
16:09 21.8 °C 12.6 °C 1005.1 hPa NE 4.7 km/h 6.4 km/h 56% 0.0 mm 97 W/m2
16:14 21.7 °C 12.5 °C 1005.1 hPa NNW 3.2 km/h 9.7 km/h 56% 0.0 mm 53 W/m2
16:19 21.5 °C 12.6 °C 1005.4 hPa SSW 1.4 km/h 4.8 km/h 57% 0.0 mm 84 W/m2
16:24 21.3 °C 12.4 °C 1005.1 hPa NNW 3.2 km/h 6.4 km/h 57% 0.0 mm 70 W/m2
16:29 21.2 °C 12.3 °C 1005.4 hPa NE 6.4 km/h 12.9 km/h 57% 0.0 mm 102 W/m2
16:34 21.2 °C 12.3 °C 1005.4 hPa WNW 9.7 km/h 16.1 km/h 57% 0.0 mm 67 W/m2
16:39 21.2 °C 12.3 °C 1005.4 hPa NNE 3.2 km/h 8 km/h 57% 0.0 mm 53 W/m2
16:44 21.1 °C 12.5 °C 1005.4 hPa NW 4.7 km/h 8 km/h 58% 0.0 mm 53 W/m2
16:49 21 °C 12.4 °C 1005.1 hPa NW 4.7 km/h 12.9 km/h 58% 0.0 mm 51 W/m2
16:54 21 °C 12.4 °C 1005.4 hPa NNW 4.7 km/h 16.1 km/h 58% 0.0 mm 56 W/m2
16:59 20.9 °C 12.3 °C 1005.4 hPa NNW 6.4 km/h 8 km/h 58% 0.0 mm 40 W/m2
17:04 21 °C 12.4 °C 1005.4 hPa ENE 4.7 km/h 16.1 km/h 58% 0.0 mm 72 W/m2
17:10 21.1 °C 12.5 °C 1005.4 hPa North 1.4 km/h 4.8 km/h 58% 0.0 mm 40 W/m2
17:15 21 °C 12.4 °C 1005.4 hPa East 6.4 km/h 16.1 km/h 58% 0.0 mm 63 W/m2
17:20 20.9 °C 12.6 °C 1005.4 hPa ESE 6.4 km/h 6.4 km/h 59% 0.0 mm 49 W/m2
17:25 21.1 °C 12.5 °C 1005.8 hPa WNW 3.2 km/h 4.8 km/h 58% 0.0 mm 40 W/m2
17:30 21.1 °C 12.8 °C 1005.8 hPa NW 6.4 km/h 6.4 km/h 59% 0.0 mm 35 W/m2
17:35 21.1 °C 12.5 °C 1005.8 hPa West 1.4 km/h 6.4 km/h 58% 0.0 mm 26 W/m2
17:40 20.9 °C 12.6 °C 1005.8 hPa ENE 4.7 km/h 8 km/h 59% 0.0 mm 28 W/m2
17:45 20.9 °C 12.6 °C 1005.8 hPa NE 9.7 km/h 9.7 km/h 59% 0.0 mm 26 W/m2
17:50 20.8 °C 12.5 °C 1005.8 hPa SSW 3.2 km/h 6.4 km/h 59% 0.0 mm 23 W/m2
17:55 20.8 °C 12.5 °C 1005.8 hPa West 3.2 km/h 12.9 km/h 59% 0.0 mm 23 W/m2
18:00 20.8 °C 12.7 °C 1005.8 hPa Calm   6.4 km/h 60% 0.0 mm 18 W/m2
18:05 20.7 °C 12.7 °C 1006.1 hPa NE 3.2 km/h 6.4 km/h 60% 0.0 mm 19 W/m2
18:10 20.6 °C 12.6 °C 1006.1 hPa SSE 6.4 km/h 6.4 km/h 60% 0.0 mm 11 W/m2
18:15 20.4 °C 12.6 °C 1006.1 hPa North 3.2 km/h 4.8 km/h 61% 0.0 mm 11 W/m2
18:20 20.3 °C 12.8 °C 1006.1 hPa Calm   3.2 km/h 62% 0.0 mm 7 W/m2
18:25 20.1 °C 13.1 °C 1006.4 hPa ESE 1.4 km/h 1.6 km/h 64% 0.0 mm 5 W/m2
18:30 19.7 °C 12.9 °C 1006.4 hPa ENE 1.4 km/h 3.2 km/h 65% 0.0 mm 0 W/m2
18:35 19.3 °C 13.2 °C 1006.4 hPa South 1.4 km/h 1.6 km/h 68% 0.0 mm 0 W/m2
18:40 19 °C 13.2 °C 1006.4 hPa South 1.4 km/h 1.6 km/h 69% 0.0 mm 0 W/m2
18:45 18.7 °C 13.3 °C 1006.4 hPa South 1.4 km/h 3.2 km/h 71% 0.0 mm 0 W/m2
18:50 18.4 °C 13 °C 1006.4 hPa NW 1.4 km/h 1.6 km/h 71% 0.0 mm 0 W/m2
18:55 18.2 °C 13.1 °C 1006.8 hPa West 1.4 km/h 3.2 km/h 72% 0.0 mm 0 W/m2
19:00 18.1 °C 13.2 °C 1006.8 hPa Calm     73% 0.0 mm 0 W/m2
19:05 17.9 °C 13.2 °C 1007.1 hPa Calm   1.6 km/h 74% 0.0 mm 0 W/m2
19:10 17.7 °C 13.2 °C 1007.1 hPa SSE 3.2 km/h 6.4 km/h 75% 0.0 mm 0 W/m2
19:15 17.7 °C 12.8 °C 1007.1 hPa Calm   6.4 km/h 73% 0.0 mm 0 W/m2
19:20 17.9 °C 12.6 °C 1007.1 hPa NW 4.7 km/h 9.7 km/h 71% 0.0 mm 0 W/m2
19:25 18.3 °C 12.5 °C 1007.1 hPa NNW 3.2 km/h 4.8 km/h 69% 0.0 mm 0 W/m2
19:30 18.8 °C 12.8 °C 1007.5 hPa North 7.9 km/h 8 km/h 68% 0.0 mm 0 W/m2
19:35 19.1 °C 12.8 °C 1007.5 hPa SE 4.7 km/h 4.8 km/h 67% 0.0 mm 0 W/m2
19:40 19.1 °C 13.1 °C 1007.5 hPa SSW 1.4 km/h 1.6 km/h 68% 0.0 mm 0 W/m2
19:45 18.8 °C 12.8 °C 1007.5 hPa SSW 3.2 km/h 3.2 km/h 68% 0.0 mm 0 W/m2
19:50 18.4 °C 12.8 °C 1007.5 hPa SSW 3.2 km/h 3.2 km/h 70% 0.0 mm 0 W/m2
19:55 18.1 °C 13 °C 1007.5 hPa SSE 1.4 km/h 1.6 km/h 72% 0.0 mm 0 W/m2
20:00 17.8 °C 12.9 °C 1007.8 hPa SSE 1.4 km/h 1.6 km/h 73% 0.0 mm 0 W/m2
20:05 17.4 °C 12.9 °C 1008.1 hPa Calm   1.6 km/h 75% 0.0 mm 0 W/m2
20:10 17.1 °C 12.8 °C 1008.1 hPa Calm   1.6 km/h 76% 0.0 mm 0 W/m2
20:15 16.8 °C 12.9 °C 1008.1 hPa Calm   3.2 km/h 78% 0.0 mm 0 W/m2
20:20 16.6 °C 12.9 °C 1008.5 hPa NNE 1.4 km/h 3.2 km/h 79% 0.0 mm 0 W/m2
20:25 16.5 °C 13 °C 1008.5 hPa Calm     80% 0.0 mm 0 W/m2
20:30 16.3 °C 13 °C 1008.5 hPa South 1.4 km/h 3.2 km/h 81% 0.0 mm 0 W/m2
20:35 16.2 °C 12.9 °C 1008.5 hPa Calm     81% 0.0 mm 0 W/m2
20:40 16.2 °C 12.9 °C 1008.5 hPa WNW 3.2 km/h 8 km/h 81% 0.0 mm 0 W/m2
20:45 16.3 °C 12.8 °C 1008.5 hPa NNE 1.4 km/h 4.8 km/h 80% 0.0 mm 0 W/m2
20:50 16.7 °C 12.8 °C 1008.5 hPa NW 4.7 km/h 6.4 km/h 78% 0.0 mm 0 W/m2
20:55 17.1 °C 12.8 °C 1008.5 hPa North 1.4 km/h 4.8 km/h 76% 0.0 mm 0 W/m2
21:00 17.4 °C 12.5 °C 1008.5 hPa NNW 7.9 km/h 12.9 km/h 73% 0.0 mm 0 W/m2
21:05 17.8 °C 12.7 °C 1008.5 hPa North 4.7 km/h 9.7 km/h 72% 0.0 mm 0 W/m2
21:10 17.9 °C 12.8 °C 1008.8 hPa Calm   12.9 km/h 72% 0.0 mm 0 W/m2
21:15 18.1 °C 13 °C 1008.8 hPa WNW 1.4 km/h 8 km/h 72% 0.0 mm 0 W/m2
21:20 18.1 °C 13 °C 1008.8 hPa NNW 1.4 km/h 6.4 km/h 72% 0.0 mm 0 W/m2
21:25 18.1 °C 13 °C 1008.8 hPa North 3.2 km/h 3.2 km/h 72% 0.0 mm 0 W/m2
21:30 18.1 °C 13 °C 1008.8 hPa Calm   4.8 km/h 72% 0.0 mm 0 W/m2
21:35 18.1 °C 13 °C 1008.8 hPa Calm   4.8 km/h 72% 0.0 mm 0 W/m2
21:40 18.1 °C 13.2 °C 1008.8 hPa ENE 4.7 km/h 6.4 km/h 73% 0.0 mm 0 W/m2
21:46 17.9 °C 13.2 °C 1008.8 hPa SSW 1.4 km/h 1.6 km/h 74% 0.0 mm 0 W/m2
21:51 17.8 °C 13.1 °C 1009.1 hPa SW 1.4 km/h 6.4 km/h 74% 0.0 mm 0 W/m2
21:56 17.8 °C 13.3 °C 1009.1 hPa Calm   3.2 km/h 75% 0.0 mm 0 W/m2
22:01 17.7 °C 13.4 °C 1009.1 hPa NW 1.4 km/h 6.4 km/h 76% 0.0 mm 0 W/m2
22:06 17.6 °C 13.3 °C 1009.1 hPa ESE 1.4 km/h 9.7 km/h 76% 0.0 mm 0 W/m2
22:11 17.4 °C 13.1 °C 1009.1 hPa Calm   1.6 km/h 76% 0.0 mm 0 W/m2
22:16 17.4 °C 13.1 °C 1009.1 hPa Calm   9.7 km/h 76% 0.0 mm 0 W/m2
22:21 17.4 °C 13.1 °C 1009.5 hPa Calm   6.4 km/h 76% 0.0 mm 0 W/m2
22:26 17.5 °C 13 °C 1009.5 hPa Calm   6.4 km/h 75% 0.0 mm 0 W/m2
22:31 17.4 °C 12.9 °C 1009.5 hPa Calm   3.2 km/h 75% 0.0 mm 0 W/m2
22:36 17.3 °C 13 °C 1009.5 hPa NNW 1.4 km/h 6.4 km/h 76% 0.0 mm 0 W/m2
22:41 17.3 °C 13 °C 1009.8 hPa North 4.7 km/h 4.8 km/h 76% 0.0 mm 0 W/m2
22:46 17.3 °C 13 °C 1009.8 hPa West 1.4 km/h 3.2 km/h 76% 0.0 mm 0 W/m2
22:51 17.2 °C 12.9 °C 1009.8 hPa East 1.4 km/h 6.4 km/h 76% 0.0 mm 0 W/m2
22:56 17.3 °C 13 °C 1009.8 hPa NE 3.2 km/h 6.4 km/h 76% 0.0 mm 0 W/m2
23:01 17.3 °C 13.2 °C 1009.8 hPa North 1.4 km/h 11.3 km/h 77% 0.0 mm 0 W/m2
23:06 17.4 °C 13.3 °C 1009.8 hPa Calm   4.8 km/h 77% 0.0 mm 0 W/m2
23:11 17.4 °C 13.3 °C 1009.8 hPa Calm   4.8 km/h 77% 0.0 mm 0 W/m2
23:16 17.4 °C 13.3 °C 1009.8 hPa ENE 1.4 km/h 3.2 km/h 77% 0.0 mm 0 W/m2
23:21 17.4 °C 13.5 °C 1010.2 hPa NW 3.2 km/h 4.8 km/h 78% 0.0 mm 0 W/m2
23:26 17.5 °C 13.6 °C 1010.2 hPa NW 1.4 km/h 4.8 km/h 78% 0.0 mm 0 W/m2
23:31 17.4 °C 13.5 °C 1010.2 hPa WSW 4.7 km/h 6.4 km/h 78% 0.0 mm 0 W/m2
23:36 17.4 °C 13.7 °C 1010.2 hPa North 6.4 km/h 6.4 km/h 79% 0.0 mm 0 W/m2
23:41 17.4 °C 13.7 °C 1010.2 hPa NW 6.4 km/h 12.9 km/h 79% 0.0 mm 0 W/m2
23:46 17.4 °C 13.7 °C 1010.2 hPa Calm   11.3 km/h 79% 0.0 mm 0 W/m2
23:51 17.4 °C 13.7 °C 1010.2 hPa NNW 3.2 km/h 6.4 km/h 79% 0.0 mm 0 W/m2
23:56 17.4 °C 13.7 °C 1010.2 hPa NW 3.2 km/h 14.5 km/h 79% 0.0 mm 0 W/m2
Juneau County Weather
Compliments of Weather Underground - 4 mb